Metar z połowy godziny Komunikat METAR ze strony awiacja.imgw.pl Metar G30 EPBY METAR EPBY 172030Z 12004KT CAVOK 12/07 Q1020 =